Boone, NC

3:44 PM EDT on September 29, 2016 (GMT -0400)
Boone

Weather History for KTNB - April, 2013

Change the Weather History Date:

Tuesday, April 30, 2013

  Actual Average (KGEV) Record (KGEV)
Temperature  
Mean Temperature 60 °F -  
Max Temperature 69 °F 68 °F 81 °F (1974)
Min Temperature 52 °F 42 °F 25 °F (1992)
Degree Days  
Heating Degree Days 4    
Growing Degree Days 10 (Base 50)    
Moisture  
Dew Point 53 °F    
Average Humidity 89    
Maximum Humidity 100    
Minimum Humidity 53    
Precipitation  
Precipitation 0.10 in - - ()
Sea Level Pressure  
Sea Level Pressure 30.14 in    
Wind  
Wind Speed 3 mph (SE)    
Max Wind Speed 12 mph    
Max Gust Speed 16 mph    
Visibility 5 miles    
Events Fog , Rain    
Averages and records for this station are not official NWS values.
T = Trace of Precipitation, MM = Missing Value Source: NWS Daily Summary

Daily Weather History Graph

Daily Weather History Graph

Search for Another Location

Airport or City:

Trip Planner

Search our weather history database for the weather conditions in past years. The results will help you decide how hot, cold, wet, or windy it might be!

Date:

Astronomy

Apr. 30, 2013 Rise Set
Actual Time 6:34 AM EDT 8:13 PM EDT
Civil Twilight 6:07 AM EDT 8:41 PM EDT
Nautical Twilight 5:34 AM EDT 9:14 PM EDT
Astronomical Twilight 4:59 AM EDT 9:49 PM EDT
Moon 12:33 AM EDT (4/30) 11:03 AM EDT (4/30)
Length of Visible Light 14h 34m
Length of Day
13h 39m
Waning Gibbous, 70% of the Moon is Illuminated
Apr 30
Waning Gibbous
May 2
Last Quarter
May 9
New
May 18
First Quarter
May 25
Full

Hourly Weather History & Observations

Time (EDT) Temp. Dew Point Humidity Pressure Visibility Wind Dir Wind Speed Gust Speed Precip Events Conditions
12:15 AM 54.5 °F 54.5 °F 100% 30.07 in 5.0 mi East 3.5 mph - N/A   Overcast
12:35 AM 54.1 °F 54.1 °F 100% 30.07 in 7.0 mi East 3.5 mph - N/A   Overcast
12:55 AM 54.3 °F 54.3 °F 100% 30.07 in 7.0 mi SE 3.5 mph - N/A   Overcast
1:15 AM 54.1 °F 54.1 °F 100% 30.07 in 5.0 mi Calm Calm - N/A   Overcast
1:35 AM 54.0 °F 54.0 °F 100% 30.07 in 5.0 mi Calm Calm - N/A   Overcast
1:55 AM 54.0 °F 54.0 °F 100% 30.06 in 5.0 mi Calm Calm - N/A   Overcast
2:15 AM 53.8 °F 53.8 °F 100% 30.06 in 5.0 mi East 4.6 mph - N/A   Overcast
2:35 AM 53.6 °F 53.6 °F 100% 30.05 in 5.0 mi East 3.5 mph - N/A   Overcast
2:55 AM 53.6 °F 53.6 °F 100% 30.05 in 4.0 mi Calm Calm - N/A   Overcast
3:15 AM 53.6 °F 53.6 °F 100% 30.05 in 4.0 mi Calm Calm - N/A   Overcast
3:35 AM 53.6 °F 53.6 °F 100% 30.06 in 4.0 mi Calm Calm - N/A   Overcast
3:55 AM 53.4 °F 53.4 °F 100% 30.06 in 3.0 mi Calm Calm - N/A   Overcast
4:15 AM 53.6 °F 53.6 °F 100% 30.07 in 3.0 mi SE 3.5 mph - N/A   Overcast
4:35 AM 53.2 °F 53.2 °F 100% 30.08 in 2.5 mi ESE 3.5 mph - N/A   Overcast
4:55 AM 53.2 °F 53.2 °F 100% 30.08 in 2.0 mi ESE 3.5 mph - N/A   Overcast
5:15 AM 53.2 °F 53.2 °F 100% 30.09 in 1.0 mi ESE 5.8 mph - N/A Rain Light Rain
5:35 AM 53.1 °F 53.1 °F 100% 30.09 in 1.0 mi Calm Calm - N/A   Overcast
5:55 AM 53.1 °F 53.1 °F 100% 30.10 in 0.5 mi ESE 3.5 mph - N/A Fog Fog
6:15 AM 53.1 °F 53.1 °F 100% 30.10 in 0.2 mi ESE 4.6 mph - N/A Fog Fog
6:35 AM 53.1 °F 53.1 °F 100% 30.10 in 0.2 mi Calm Calm - N/A Fog Fog
6:55 AM 53.1 °F 53.1 °F 100% 30.11 in 0.2 mi Calm Calm - N/A Fog Fog
7:15 AM 52.9 °F 52.9 °F 100% 30.12 in 0.2 mi SE 4.6 mph - N/A Fog Fog
7:35 AM 52.7 °F 52.7 °F 100% 30.13 in 0.2 mi SE 3.5 mph - N/A Rain Rain
7:55 AM 52.9 °F 52.9 °F 100% 30.14 in 0.2 mi Calm Calm - N/A   Light Drizzle
8:15 AM 52.9 °F 52.9 °F 100% 30.14 in 0.2 mi ESE 3.5 mph - N/A   Light Drizzle
8:35 AM 53.1 °F 53.1 °F 100% 30.15 in 0.2 mi ESE 4.6 mph - N/A Fog Fog
8:55 AM 52.7 °F 52.7 °F 100% 30.15 in 0.2 mi SE 3.5 mph - N/A Fog Fog
9:15 AM 52.7 °F 52.7 °F 100% 30.16 in 0.2 mi ESE 3.5 mph - N/A Fog Fog
9:35 AM 53.2 °F 53.2 °F 100% 30.16 in 0.2 mi Calm Calm - N/A Fog Fog
9:55 AM 53.2 °F 53.2 °F 100% 30.16 in 0.2 mi SE 6.9 mph - N/A Fog Fog
10:15 AM 53.6 °F 53.6 °F 100% 30.16 in 0.2 mi SE 4.6 mph - N/A Fog Fog
10:35 AM 53.6 °F 53.6 °F 100% 30.16 in 0.2 mi Calm Calm - N/A Fog Fog
10:55 AM 53.6 °F 53.6 °F 100% 30.16 in 0.2 mi East 3.5 mph - N/A Fog Fog
11:15 AM 54.1 °F 54.1 °F 100% 30.17 in 0.2 mi East 4.6 mph - N/A Fog Fog
11:35 AM 55.2 °F 55.2 °F 100% 30.17 in 2.0 mi East 3.5 mph - N/A   Overcast
11:55 AM 56.3 °F 56.3 °F 100% 30.17 in 7.0 mi Calm Calm - N/A   Overcast
12:15 PM 59.0 °F 56.7 °F 92% 30.16 in 10.0 mi SE 4.6 mph - N/A   Mostly Cloudy
12:35 PM 62.8 °F 56.7 °F 80% 30.16 in 10.0 mi East 3.5 mph - N/A   Scattered Clouds
12:55 PM 61.9 °F 54.1 °F 76% 30.16 in 10.0 mi ESE 4.6 mph - N/A   Scattered Clouds
1:15 PM 64.8 °F 54.0 °F 68% 30.15 in 10.0 mi SSE 3.5 mph - N/A   Clear
1:35 PM 65.5 °F 52.9 °F 64% 30.15 in 10.0 mi SSE 3.5 mph - N/A   Clear
1:55 PM 66.7 °F 51.3 °F 57% 30.14 in 10.0 mi WSW 6.9 mph - N/A   Scattered Clouds
2:15 PM 67.8 °F 50.9 °F 55% 30.14 in 10.0 mi SSW 10.4 mph - N/A   Scattered Clouds
2:35 PM 69.3 °F 53.2 °F 57% 30.14 in 10.0 mi SSE 3.5 mph - N/A   Mostly Cloudy
2:55 PM 66.4 °F 50.7 °F 57% 30.14 in 10.0 mi SSE 3.5 mph - N/A   Scattered Clouds
3:15 PM 65.7 °F 49.8 °F 57% 30.13 in 10.0 mi East 3.5 mph - N/A   Scattered Clouds
3:35 PM 65.8 °F 50.9 °F 58% 30.12 in 10.0 mi SE 8.1 mph - N/A   Scattered Clouds
3:55 PM 64.8 °F 49.1 °F 57% 30.12 in 10.0 mi SE 5.8 mph - N/A   Scattered Clouds
4:15 PM 64.6 °F 48.9 °F 57% 30.12 in 10.0 mi SE 5.8 mph - N/A   Scattered Clouds
4:35 PM 64.9 °F 49.8 °F 58% 30.12 in 10.0 mi SE 9.2 mph - N/A   Scattered Clouds
4:55 PM 63.1 °F 50.2 °F 63% 30.12 in 10.0 mi SSE 8.1 mph - N/A   Scattered Clouds
5:15 PM 66.6 °F 48.7 °F 53% 30.13 in 10.0 mi SSE 5.8 mph - N/A   Scattered Clouds
5:35 PM 65.3 °F 52.3 °F 63% 30.14 in 10.0 mi ESE 8.1 mph 16.1 mph N/A   Scattered Clouds
6:15 PM 64.0 °F 52.5 °F 66% 30.16 in 10.0 mi SE 5.8 mph - N/A   Scattered Clouds
6:35 PM 63.9 °F 53.1 °F 68% 30.17 in 10.0 mi SSE 11.5 mph - N/A   Scattered Clouds
6:55 PM 62.6 °F 53.1 °F 71% 30.17 in 10.0 mi South 5.8 mph - N/A   Scattered Clouds
7:15 PM 61.2 °F 53.4 °F 76% 30.18 in 10.0 mi SSE 6.9 mph - N/A   Mostly Cloudy
7:35 PM 58.6 °F 56.7 °F 93% 30.19 in 7.0 mi ESE 3.5 mph - N/A Rain Rain
7:55 PM 56.8 °F 56.5 °F 99% 30.20 in 2.0 mi ESE 4.6 mph - 0.06 in Rain Rain
8:15 PM 56.7 °F 56.7 °F 100% 30.20 in 2.5 mi SE 8.1 mph - 0.03 in Rain Rain
8:35 PM 56.5 °F 56.5 °F 100% 30.21 in 5.0 mi ESE 3.5 mph - 0.04 in   Drizzle
8:55 PM 56.1 °F 56.1 °F 100% 30.21 in 5.0 mi ESE 4.6 mph - 0.04 in   Overcast
9:15 PM 55.8 °F 55.8 °F 100% 30.22 in 7.0 mi Calm Calm - N/A   Overcast
9:35 PM 55.4 °F 55.4 °F 100% 30.22 in 5.0 mi ESE 5.8 mph - N/A   Overcast
9:55 PM 55.0 °F 55.0 °F 100% 30.23 in 5.0 mi SE 5.8 mph - N/A   Overcast
10:15 PM 55.0 °F 55.0 °F 100% 30.23 in 5.0 mi ESE 4.6 mph - N/A   Overcast
10:35 PM 54.9 °F 54.9 °F 100% 30.23 in 5.0 mi ESE 4.6 mph - N/A   Overcast
10:55 PM 54.5 °F 54.5 °F 100% 30.24 in 5.0 mi SE 4.6 mph - N/A   Overcast
11:15 PM 54.5 °F 54.5 °F 100% 30.23 in 4.0 mi East 6.9 mph - N/A   Overcast
11:35 PM 53.6 °F 53.6 °F 100% 30.24 in 7.0 mi ESE 3.5 mph - N/A   Overcast
11:55 PM 53.4 °F 53.2 °F 99% 30.24 in 7.0 mi ESE 4.6 mph - N/A   Overcast